Weather at Fulton County Airport Brown Field

Public forecast

Using degrees Fahrenheit for public forecast. Weather courtesy of forecast.io.

Current aviation weather report (METAR) for Fulton County Airport Brown Field

Retrieved 2020/11/25 03:53 UTC (45 minutes ago):

KFTY 250353Z 08005KT 10SM CLR 11/01 A3027 RMK AO2 SLP247 T01060011

Aviation forecast (TAF) for Fulton County Airport Brown Field

Retrieved 2020-11-25 00:40 UTC (4 hours ago):

TAF KFTY 242338Z 2500/2524 12006KT P6SM SCT250 FM250600 11008KT P6SM FEW025 BKN035 FM250700 11007KT P6SM BKN020 FM250900 12007KT P6SM OVC010 FM251600 14009KT P6SM OVC025 FM252100 16008KT P6SM OVC035